Time;durP1;ratioP1;P1;durP2;ratioP2;P2;SDS_P1;SDS_P2;PMS_P1;PMS_P2;Temp;Humidity;BMP_temperature;BMP_pressure;BME280_temperature;BME280_humidity;BME280_pressure;Samples;Min_cycle;Max_cycle;Signal;HPM_P1;HPM_P2
2024/01/13 00:04:48;;;;;;;8.65;7.75;;;;;;;4.46;100.00;102854.84;10414290;28;20203;-69
2024/01/13 00:09:48;;;;;;;10.40;8.38;;;;;;;4.50;100.00;102856.38;10412057;28;20120;-73
2024/01/13 00:14:49;;;;;;;10.00;9.02;;;;;;;4.53;100.00;102845.41;10414448;28;20461;-74
2024/01/13 00:19:50;;;;;;;11.82;10.63;;;;;;;4.54;100.00;102839.06;10412171;28;20029;-73
2024/01/13 00:24:50;;;;;;;12.82;8.48;;;;;;;4.57;100.00;102836.16;10413265;28;20036;-73
2024/01/13 00:29:51;;;;;;;10.50;9.50;;;;;;;4.62;100.00;102830.47;10428797;28;20405;-73
2024/01/13 00:34:51;;;;;;;11.95;9.82;;;;;;;4.65;100.00;102835.59;10410763;28;20128;-74
2024/01/13 00:39:51;;;;;;;12.50;10.38;;;;;;;4.65;100.00;102825.72;10411725;28;20049;-73
2024/01/13 00:44:52;;;;;;;11.18;10.13;;;;;;;4.57;100.00;102820.06;10413410;28;20144;-73
2024/01/13 00:49:53;;;;;;;11.93;10.75;;;;;;;4.53;100.00;102809.66;10416512;28;20441;-75
2024/01/13 00:54:53;;;;;;;11.70;10.65;;;;;;;4.39;100.00;102806.16;10402487;28;20116;-74
2024/01/13 00:59:54;;;;;;;19.98;10.73;;;;;;;4.28;100.00;102795.34;10419886;28;20104;-73
2024/01/13 01:04:54;;;;;;;12.38;11.18;;;;;;;4.33;100.00;102793.19;10420524;28;20033;-73
2024/01/13 01:09:55;;;;;;;13.52;10.40;;;;;;;4.41;100.00;102800.69;10418748;28;20090;-74
2024/01/13 01:14:55;;;;;;;9.93;8.93;;;;;;;4.48;100.00;102795.75;10419816;28;20144;-74
2024/01/13 01:19:56;;;;;;;11.02;9.55;;;;;;;4.56;100.00;102787.97;10419607;28;20025;-73
2024/01/13 01:24:57;;;;;;;12.52;9.80;;;;;;;4.56;100.00;102787.97;10418297;28;20532;-74
2024/01/13 01:29:57;;;;;;;8.23;7.43;;;;;;;4.56;100.00;102787.97;10419365;28;20033;-73
2024/01/13 01:34:58;;;;;;;7.88;7.13;;;;;;;4.57;100.00;102785.19;10401191;28;20416;-73
2024/01/13 01:39:58;;;;;;;8.63;7.82;;;;;;;4.59;100.00;102780.56;10433558;28;20108;-75
2024/01/13 01:44:59;;;;;;;11.60;10.15;;;;;;;4.62;100.00;102766.91;10417446;28;20036;-74
2024/01/13 01:49:59;;;;;;;12.55;10.43;;;;;;;4.64;100.00;102766.81;10417286;28;20080;-74
2024/01/13 01:55:01;;;;;;;12.07;10.85;;;;;;;4.64;100.00;102756.94;10417286;28;20052;-73
2024/01/13 02:00:02;;;;;;;14.38;12.63;;;;;;;4.63;100.00;102743.66;10399730;28;20029;-73
2024/01/13 02:05:03;;;;;;;15.43;12.25;;;;;;;4.60;100.00;102738.50;10417197;28;20034;-73
2024/01/13 02:10:03;;;;;;;10.63;9.55;;;;;;;4.66;100.00;102740.75;10417790;28;20056;-74
2024/01/13 02:15:04;;;;;;;9.70;7.65;;;;;;;4.66;100.00;102730.00;10416107;28;20033;-74
2024/01/13 02:20:07;;;;;;;6.13;5.45;;;;;;;4.71;100.00;102722.44;10417276;28;20164;-74
2024/01/13 02:25:07;;;;;;;3.70;3.05;;;;;;;4.74;100.00;102721.38;10431927;28;20045;-75
2024/01/13 02:30:08;;;;;;;3.08;2.22;;;;;;;4.75;100.00;102707.81;10415808;28;20187;-75
2024/01/13 02:35:09;;;;;;;1.45;1.45;;;;;;;4.79;100.00;102697.75;10432574;28;20049;-75
2024/01/13 02:40:10;;;;;;;3.13;1.75;;;;;;;4.81;100.00;102696.63;10416035;28;20142;-76
2024/01/13 02:45:10;;;;;;;3.83;2.22;;;;;;;4.83;100.00;102686.63;10415296;28;20037;-74
2024/01/13 02:50:11;;;;;;;2.35;1.60;;;;;;;4.81;100.00;102674.31;10416524;28;20033;-76
2024/01/13 02:55:12;;;;;;;1.88;1.63;;;;;;;4.84;100.00;102669.56;10431130;28;20021;-74
2024/01/13 03:00:13;;;;;;;1.58;1.48;;;;;;;4.83;100.00;102661.63;10416416;28;20037;-75
2024/01/13 03:05:13;;;;;;;1.92;1.75;;;;;;;4.81;100.00;102652.84;10415605;28;20048;-76
2024/01/13 03:10:14;;;;;;;5.15;2.10;;;;;;;4.83;100.00;102651.75;10397166;28;20021;-75
2024/01/13 03:15:14;;;;;;;2.38;2.15;;;;;;;4.83;100.00;102646.38;10413062;28;20372;-75
2024/01/13 03:20:15;;;;;;;1.88;1.63;;;;;;;4.83;100.00;102627.59;10414219;28;20108;-75
2024/01/13 03:25:15;;;;;;;2.25;2.05;;;;;;;4.83;100.00;102627.59;10412983;28;20479;-75
2024/01/13 03:30:16;;;;;;;4.78;3.30;;;;;;;4.82;100.00;102617.84;10414715;28;20072;-75
2024/01/13 03:35:16;;;;;;;3.58;2.92;;;;;;;4.83;100.00;102622.22;10413964;28;20049;-74
2024/01/13 03:40:17;;;;;;;2.53;2.42;;;;;;;4.84;100.00;102610.50;10414265;28;20041;-75
2024/01/13 03:45:17;;;;;;;2.70;2.60;;;;;;;4.87;100.00;102604.03;10413760;28;20400;-75
2024/01/13 03:50:18;;;;;;;2.67;2.47;;;;;;;4.87;100.00;102588.78;10414233;28;20034;-75
2024/01/13 03:55:18;;;;;;;2.22;2.03;;;;;;;4.83;100.00;102581.09;10415171;28;20036;-75
2024/01/13 04:00:19;;;;;;;3.20;1.42;;;;;;;4.81;100.00;102578.53;10412519;28;20453;-74
2024/01/13 04:05:19;;;;;;;3.90;2.42;;;;;;;4.82;100.00;102572.22;10413513;28;20041;-74
2024/01/13 04:10:20;;;;;;;3.50;1.58;;;;;;;4.79;100.00;102564.38;10412158;28;20124;-74
2024/01/13 04:15:20;;;;;;;1.70;1.60;;;;;;;4.74;100.00;102561.19;10413388;28;20033;-75
2024/01/13 04:20:21;;;;;;;2.85;1.58;;;;;;;4.71;100.00;102548.00;10412019;28;20067;-74
2024/01/13 04:25:21;;;;;;;0.75;0.75;;;;;;;4.60;100.00;102548.84;10428075;28;20029;-73
2024/01/13 04:30:22;;;;;;;1.58;1.10;;;;;;;4.56;100.00;102546.50;10413065;28;20033;-73
2024/01/13 04:35:22;;;;;;;1.58;1.48;;;;;;;4.62;100.00;102546.88;10413207;28;20049;-74
2024/01/13 04:40:23;;;;;;;3.13;1.42;;;;;;;4.69;100.00;102555.34;10427537;28;20099;-73
2024/01/13 04:45:23;;;;;;;3.00;1.20;;;;;;;4.69;100.00;102551.78;10428446;28;20025;-73
2024/01/13 04:50:24;;;;;;;1.98;1.88;;;;;;;4.67;100.00;102546.53;10394617;28;20147;-73
2024/01/13 04:55:24;;;;;;;2.08;1.88;;;;;;;4.63;100.00;102534.34;10412883;28;20037;-73
2024/01/13 05:00:25;;;;;;;2.70;2.03;;;;;;;4.64;100.00;102538.72;10412455;28;20089;-74
2024/01/13 05:05:25;;;;;;;2.75;1.63;;;;;;;4.63;100.00;102545.09;10412342;28;20033;-73
2024/01/13 05:10:26;;;;;;;3.75;2.65;;;;;;;4.65;100.00;102546.66;10412079;28;20044;-73
2024/01/13 05:15:26;;;;;;;5.03;2.33;;;;;;;4.69;100.00;102555.34;10412545;28;20029;-73
2024/01/13 05:20:26;;;;;;;2.40;2.17;;;;;;;4.69;100.00;102563.41;10412877;28;20033;-73
2024/01/13 05:25:27;;;;;;;4.43;2.50;;;;;;;4.64;100.00;102550.31;10410377;28;20064;-74
2024/01/13 05:30:32;;;;;;;2.38;2.17;;;;;;;4.64;100.00;102542.25;10411506;28;20048;-73
2024/01/13 05:35:32;;;;;;;2.83;2.63;;;;;;;4.62;100.00;102529.94;10396979;28;20053;-72
2024/01/13 05:40:32;;;;;;;7.63;3.10;;;;;;;4.60;100.00;102521.19;10418952;28;20116;-74
2024/01/13 05:45:33;;;;;;;4.57;3.17;;;;;;;4.55;100.00;102494.69;10418956;28;20034;-73
2024/01/13 05:50:33;;;;;;;6.50;3.22;;;;;;;4.54;100.00;102517.13;10418096;28;20037;-73
2024/01/13 05:55:34;;;;;;;3.50;3.20;;;;;;;4.53;100.00;102512.75;10418735;28;20097;-74
2024/01/13 06:00:34;;;;;;;5.63;3.55;;;;;;;4.51;100.00;102501.25;10418063;28;20087;-72
2024/01/13 06:05:35;;;;;;;3.72;3.38;;;;;;;4.51;100.00;102516.50;10417149;28;20453;-74
2024/01/13 06:10:35;;;;;;;3.42;3.22;;;;;;;4.48;100.00;102490.78;10432364;28;20040;-72
2024/01/13 06:15:36;;;;;;;3.45;3.25;;;;;;;4.43;100.00;102487.59;10418701;28;20029;-72
2024/01/13 06:20:36;;;;;;;9.25;4.88;;;;;;;4.45;100.00;102504.41;10417496;28;20179;-74
2024/01/13 06:25:37;;;;;;;6.32;5.82;;;;;;;4.39;100.00;102462.81;10416615;28;20033;-72
2024/01/13 06:30:37;;;;;;;5.78;5.30;;;;;;;4.45;100.00;102449.94;10415877;28;20475;-73
2024/01/13 06:35:37;;;;;;;14.45;5.40;;;;;;;4.52;100.00;102440.41;10416903;28;20045;-73
2024/01/13 06:40:38;;;;;;;8.98;7.00;;;;;;;4.50;100.00;102432.50;10416090;28;20523;-73
2024/01/13 06:45:38;;;;;;;11.25;7.03;;;;;;;4.51;100.00;102431.53;10417177;28;20029;-72
2024/01/13 06:50:39;;;;;;;8.10;7.35;;;;;;;4.48;100.00;102417.50;10416309;28;20390;-73
2024/01/13 06:55:39;;;;;;;18.42;9.18;;;;;;;4.54;100.00;102435.78;10416639;28;20053;-73
2024/01/13 07:00:40;;;;;;;7.53;6.78;;;;;;;4.50;100.00;102419.09;10414517;28;20163;-72
2024/01/13 07:05:40;;;;;;;11.48;7.60;;;;;;;4.48;100.00;102409.44;10430860;28;20095;-73
2024/01/13 07:10:41;;;;;;;10.88;8.43;;;;;;;4.36;100.00;102408.56;10414983;28;20067;-72
2024/01/13 07:15:42;;;;;;;13.38;8.88;;;;;;;4.36;100.00;102403.22;10413917;28;20091;-72
2024/01/13 07:20:42;;;;;;;10.30;9.35;;;;;;;4.43;100.00;102382.97;10415224;28;20361;-72
2024/01/13 07:25:43;;;;;;;11.27;10.10;;;;;;;4.39;100.00;102390.41;10414910;28;20049;-71
2024/01/13 07:30:43;;;;;;;10.30;9.27;;;;;;;4.47;100.00;102399.69;10414019;28;20037;-71
2024/01/13 07:35:44;;;;;;;14.10;9.30;;;;;;;4.42;100.00;102371.41;10414196;28;20407;-71
2024/01/13 07:40:44;;;;;;;10.35;8.35;;;;;;;4.46;100.00;102387.25;10416108;28;20056;-72
2024/01/13 07:45:44;;;;;;;12.18;7.97;;;;;;;4.41;100.00;102375.06;10413711;28;20029;-72
2024/01/13 07:50:45;;;;;;;18.33;9.85;;;;;;;4.27;100.00;102369.06;10430040;28;20064;-72
2024/01/13 07:55:45;;;;;;;14.40;10.35;;;;;;;4.39;100.00;102390.41;10413619;28;20039;-72
2024/01/13 08:00:46;;;;;;;15.02;9.35;;;;;;;4.32;100.00;102378.47;10395992;28;20030;-71
2024/01/13 08:05:46;;;;;;;8.38;7.57;;;;;;;4.35;100.00;102369.31;10413909;28;20120;-72
2024/01/13 08:10:47;;;;;;;7.50;6.78;;;;;;;4.32;100.00;102377.63;10413429;28;20037;-72
2024/01/13 08:15:47;;;;;;;6.38;5.75;;;;;;;4.29;100.00;102381.38;10429035;28;20029;-72
2024/01/13 08:20:48;;;;;;;6.97;6.28;;;;;;;4.38;100.00;102382.50;10413072;28;20556;-71
2024/01/13 08:25:48;;;;;;;7.80;7.00;;;;;;;4.36;100.00;102376.38;10428160;28;20120;-72
2024/01/13 08:30:49;;;;;;;9.07;7.20;;;;;;;4.34;100.00;102364.91;10413454;28;20040;-72
2024/01/13 08:35:49;;;;;;;10.43;7.20;;;;;;;4.31;100.00;102371.41;10427882;28;20136;-71
2024/01/13 08:40:50;;;;;;;11.02;7.15;;;;;;;4.31;100.00;102376.75;10428166;28;20117;-71
2024/01/13 08:45:50;;;;;;;8.70;7.75;;;;;;;4.33;100.00;102374.78;10412504;28;20503;-71
2024/01/13 08:50:51;;;;;;;12.32;7.93;;;;;;;4.34;100.00;102354.19;10411793;28;20091;-72
2024/01/13 08:55:51;;;;;;;22.50;11.20;;;;;;;4.34;100.00;102357.75;10412110;28;20404;-71
2024/01/13 09:00:56;;;;;;;19.15;12.40;;;;;;;4.40;100.00;102348.34;10410740;28;20039;-71
2024/01/13 09:05:57;;;;;;;18.02;15.07;;;;;;;4.41;100.00;102352.75;10394792;28;20069;-71
2024/01/13 09:10:57;;;;;;;18.52;15.13;;;;;;;4.47;100.00;102354.06;10415606;28;20034;-71
2024/01/13 09:15:58;;;;;;;30.60;20.80;;;;;;;4.40;100.00;102364.44;10418672;28;20057;-71
2024/01/13 09:20:59;;;;;;;21.65;17.25;;;;;;;4.37;100.00;102354.84;10434923;28;20091;-71
2024/01/13 09:26:02;;;;;;;30.83;21.23;;;;;;;4.30;100.00;102345.53;10419356;28;20095;-70
2024/01/13 09:31:03;;;;;;;21.73;17.08;;;;;;;4.25;100.00;102334.34;10417377;28;20117;-71
2024/01/13 09:36:04;;;;;;;34.50;19.33;;;;;;;4.26;100.00;102341.41;10418562;28;20045;-71
2024/01/13 09:41:05;;;;;;;27.65;18.40;;;;;;;4.26;100.00;102340.56;10418769;28;20026;-71
2024/01/13 09:46:06;;;;;;;21.17;17.60;;;;;;;4.24;100.00;102332.63;10417029;28;20033;-71
2024/01/13 09:51:06;;;;;;;20.20;17.67;;;;;;;4.24;100.00;102332.63;10417521;28;20120;-70
2024/01/13 09:56:13;;;;;;;29.27;20.60;;;;;;;4.22;100.00;102326.53;10416709;28;20136;-71
2024/01/13 10:01:14;;;;;;;26.88;22.48;;;;;;;4.22;100.00;102329.22;10416509;28;20079;-71
2024/01/13 10:06:15;;;;;;;28.52;22.10;;;;;;;4.18;100.00;102322.41;10400261;28;20493;-70
2024/01/13 10:11:15;;;;;;;32.95;23.80;;;;;;;4.26;100.00;102314.59;10416338;28;20021;-70
2024/01/13 10:16:16;;;;;;;38.47;26.40;;;;;;;4.27;100.00;102315.44;10417629;28;20037;-70
2024/01/13 10:21:16;;;;;;;37.78;28.95;;;;;;;4.30;100.00;102316.03;10417210;28;20087;-70
2024/01/13 10:26:17;;;;;;;40.60;29.75;;;;;;;4.34;100.00;102317.53;10399918;28;20467;-71
2024/01/13 10:31:18;;;;;;;40.30;31.13;;;;;;;4.34;100.00;102322.88;10417112;28;20025;-71
2024/01/13 10:36:23;;;;;;;39.33;29.35;;;;;;;4.34;100.00;102314.84;10417041;28;20433;-71
2024/01/13 10:41:27;;;;;;;45.17;30.40;;;;;;;4.31;100.00;102306.19;10415513;28;20021;-70
2024/01/13 10:46:27;;;;;;;40.42;28.92;;;;;;;4.31;100.00;102298.16;10414867;28;20029;-71
2024/01/13 10:51:33;;;;;;;37.65;28.38;;;;;;;4.33;100.00;102285.44;10414981;28;20391;-71
2024/01/13 10:56:35;;;;;;;54.27;34.20;;;;;;;4.34;100.00;102287.16;10414445;28;20030;-71
2024/01/13 11:01:37;;;;;;;44.22;28.40;;;;;;;4.38;100.00;102297.53;10382562;28;20437;-70
2024/01/13 11:06:38;;;;;;;42.42;27.52;;;;;;;4.36;100.00;102293.25;10415242;28;20025;-70
2024/01/13 11:11:43;;;;;;;54.35;29.45;;;;;;;4.41;100.00;102278.50;10413822;28;20029;-70
2024/01/13 11:16:44;;;;;;;50.70;29.42;;;;;;;4.46;100.00;102286.16;10413533;28;20033;-71
2024/01/13 11:21:48;;;;;;;44.55;28.08;;;;;;;4.47;100.00;102269.13;10414095;28;20322;-71
2024/01/13 11:26:49;;;;;;;36.65;28.60;;;;;;;4.46;100.00;102253.97;10412784;28;20120;-71
2024/01/13 11:31:57;;;;;;;44.58;29.92;;;;;;;4.54;100.00;102239.97;10411686;28;20469;-71
2024/01/13 11:36:59;;;;;;;36.88;26.40;;;;;;;4.56;100.00;102219.22;10411904;28;20045;-71
2024/01/13 11:42:00;;;;;;;31.58;23.13;;;;;;;4.61;100.00;102211.66;10413153;28;20021;-70
2024/01/13 11:47:07;;;;;;;36.53;22.95;;;;;;;4.71;100.00;102209.06;10396444;28;20120;-71
2024/01/13 11:52:11;;;;;;;35.38;25.15;;;;;;;4.69;100.00;102198.47;10412592;28;20029;-71
2024/01/13 11:57:15;;;;;;;38.88;23.00;;;;;;;4.65;100.00;102181.75;10413154;28;20036;-70
2024/01/13 12:02:16;;;;;;;34.10;25.05;;;;;;;4.71;100.00;102179.53;10413363;28;20044;-70
2024/01/13 12:07:17;;;;;;;39.67;24.67;;;;;;;4.69;100.00;102187.72;10413423;28;20040;-70
2024/01/13 12:12:18;;;;;;;33.63;24.00;;;;;;;4.72;100.00;102195.50;10411341;28;20057;-71
2024/01/13 12:17:19;;;;;;;40.90;23.08;;;;;;;4.75;100.00;102189.88;10412766;28;20361;-70
2024/01/13 12:22:19;;;;;;;36.20;23.38;;;;;;;4.87;100.00;102179.94;10395104;28;20341;-70
2024/01/13 12:27:21;;;;;;;29.95;23.77;;;;;;;4.99;100.00;102168.19;10413742;28;20025;-71
2024/01/13 12:32:21;;;;;;;34.72;22.85;;;;;;;5.01;100.00;102168.03;10396140;28;20025;-70
2024/01/13 12:37:22;;;;;;;30.45;22.17;;;;;;;5.01;100.00;102155.50;10394208;28;20073;-71
2024/01/13 12:42:23;;;;;;;28.17;19.92;;;;;;;5.02;100.00;102153.66;10410960;28;20029;-70
2024/01/13 12:47:24;;;;;;;27.67;20.77;;;;;;;4.99;100.00;102144.03;10421115;28;20216;-71
2024/01/13 12:52:29;;;;;;;28.50;20.92;;;;;;;5.02;100.00;102150.97;10420055;28;20029;-70
2024/01/13 12:57:32;;;;;;;27.38;20.15;;;;;;;5.03;100.00;102153.50;10419642;28;20025;-71
2024/01/13 13:02:35;;;;;;;34.53;22.08;;;;;;;5.06;100.00;102147.88;10418415;28;20480;-71
2024/01/13 13:07:36;;;;;;;30.73;19.30;;;;;;;5.02;100.00;102138.41;10418046;28;20033;-72
2024/01/13 13:12:37;;;;;;;28.38;20.05;;;;;;;4.94;100.00;102126.59;10418168;28;20025;-71
2024/01/13 13:17:37;;;;;;;29.90;19.55;;;;;;;4.87;100.00;102116.38;10418753;28;20147;-73
2024/01/13 13:22:38;;;;;;;25.20;19.23;;;;;;;4.96;100.00;102113.91;10419521;28;20453;-74
2024/01/13 13:27:38;;;;;;;25.30;18.00;;;;;;;5.01;100.00;102122.41;10419442;28;20090;-71
2024/01/13 13:32:39;;;;;;;32.15;17.95;;;;;;;5.07;100.00;102111.16;10417781;28;20033;-71
2024/01/13 13:37:42;;;;;;;26.98;16.88;;;;;;;5.10;100.00;102108.19;10401746;28;20060;-71
2024/01/13 13:42:42;;;;;;;19.98;11.75;;;;;;;5.12;100.00;102111.63;10417563;28;20064;-71
2024/01/13 13:47:43;;;;;;;17.48;12.32;;;;;;;5.10;100.00;102092.94;10418797;28;20038;-74
2024/01/13 13:52:44;;;;;;;18.98;12.82;;;;;;;5.13;100.00;102087.28;10418947;28;20044;-73
2024/01/13 13:57:44;;;;;;;17.42;13.18;;;;;;;5.10;100.00;102078.66;10416608;28;20021;-72
2024/01/13 14:02:45;;;;;;;20.02;14.82;;;;;;;5.07;100.00;102069.06;10416769;28;20029;-73
2024/01/13 14:07:45;;;;;;;20.55;14.05;;;;;;;5.00;100.00;102062.50;10417979;28;20036;-73
2024/01/13 14:12:46;;;;;;;25.70;15.20;;;;;;;5.04;100.00;102063.09;10417098;28;20072;-72
2024/01/13 14:17:46;;;;;;;28.27;14.95;;;;;;;5.06;100.00;102053.91;10417873;28;20049;-73
2024/01/13 14:22:47;;;;;;;24.13;13.63;;;;;;;5.08;100.00;102046.59;10416305;28;20026;-73
2024/01/13 14:27:48;;;;;;;18.17;13.82;;;;;;;5.14;100.00;102031.78;10416342;28;20026;-72
2024/01/13 14:32:49;;;;;;;14.77;11.63;;;;;;;5.16;100.00;102024.44;10417227;28;20025;-73
2024/01/13 14:37:50;;;;;;;16.58;11.68;;;;;;;5.22;100.00;102026.59;10417900;28;20053;-72
2024/01/13 14:42:50;;;;;;;23.70;13.07;;;;;;;5.28;100.00;102019.81;10415114;28;20400;-72
2024/01/13 14:47:51;;;;;;;25.60;15.77;;;;;;;5.29;100.00;102014.31;10416487;28;20033;-71
2024/01/13 14:52:51;;;;;;;21.67;14.82;;;;;;;5.25;100.00;102012.88;10415030;28;20095;-72
2024/01/13 14:57:52;;;;;;;22.85;12.90;;;;;;;5.24;100.00;102023.78;10416734;28;20116;-71
2024/01/13 15:02:53;;;;;;;15.93;9.70;;;;;;;5.13;100.00;102020.19;10415127;28;20057;-75
2024/01/13 15:07:54;;;;;;;16.50;10.27;;;;;;;5.04;100.00;102014.75;10414472;28;20068;-71
2024/01/13 15:12:55;;;;;;;9.30;8.40;;;;;;;5.00;100.00;102016.88;10416029;28;20525;-74
2024/01/13 15:17:55;;;;;;;13.10;10.52;;;;;;;5.02;100.00;102022.13;10430669;28;20112;-73
2024/01/13 15:22:56;;;;;;;12.75;9.93;;;;;;;5.03;100.00;102019.28;10415491;28;20037;-72
2024/01/13 15:27:56;;;;;;;10.55;9.50;;;;;;;5.02;100.00;102017.59;10414510;28;20033;-71
2024/01/13 15:32:58;;;;;;;15.18;11.32;;;;;;;5.03;100.00;102011.22;10414711;28;20373;-74
2024/01/13 15:37:58;;;;;;;15.65;10.38;;;;;;;5.02;100.00;102006.84;10360271;28;20492;-72
2024/01/13 15:42:59;;;;;;;9.75;8.70;;;;;;;5.07;100.00;102011.81;10414615;28;20037;-72
2024/01/13 15:48:00;;;;;;;13.43;7.85;;;;;;;5.02;100.00;102006.00;10413247;28;20488;-71
2024/01/13 15:53:01;;;;;;;9.48;8.25;;;;;;;5.06;100.00;102012.81;10414888;28;20049;-71
2024/01/13 15:58:01;;;;;;;9.65;7.32;;;;;;;5.07;100.00;102009.13;10428398;28;20501;-70
2024/01/13 16:03:02;;;;;;;10.02;7.57;;;;;;;5.05;100.00;102013.78;10413346;28;20022;-70
2024/01/13 16:08:04;;;;;;;13.45;8.02;;;;;;;4.96;100.00;101999.34;10412789;28;20048;-71
2024/01/13 16:13:04;;;;;;;18.92;7.18;;;;;;;4.96;100.00;101993.13;10413605;28;20133;-71
2024/01/13 16:18:05;;;;;;;7.63;6.20;;;;;;;4.92;100.00;101995.22;10412590;28;20449;-71
2024/01/13 16:23:06;;;;;;;11.55;7.18;;;;;;;4.95;100.00;101988.75;10412725;28;20021;-71
2024/01/13 16:28:07;;;;;;;8.30;5.85;;;;;;;4.96;100.00;101991.28;10413426;28;20044;-71
2024/01/13 16:33:09;;;;;;;6.85;6.25;;;;;;;4.89;100.00;101977.56;10394814;28;20040;-71
2024/01/13 16:38:09;;;;;;;9.70;6.45;;;;;;;4.87;100.00;101970.59;10412627;28;20398;-71
2024/01/13 16:43:10;;;;;;;10.25;6.75;;;;;;;4.79;100.00;101976.66;10412004;28;20046;-71
2024/01/13 16:48:11;;;;;;;14.70;7.68;;;;;;;4.80;100.00;101986.41;10413338;28;20391;-71
2024/01/13 16:53:12;;;;;;;9.07;6.85;;;;;;;4.79;100.00;101973.13;10412243;28;20151;-70
2024/01/13 16:58:13;;;;;;;12.20;7.55;;;;;;;4.83;100.00;101983.44;10411829;28;20360;-71
2024/01/13 17:03:14;;;;;;;11.45;8.38;;;;;;;4.80;100.00;101966.78;10412667;28;20034;-70
2024/01/13 17:08:14;;;;;;;10.93;8.55;;;;;;;4.80;100.00;101962.25;10413047;28;20341;-71
2024/01/13 17:13:17;;;;;;;10.20;8.25;;;;;;;4.82;100.00;101962.97;10410609;28;20026;-71
2024/01/13 17:18:19;;;;;;;10.38;8.75;;;;;;;4.87;100.00;101963.41;10411151;28;20093;-70
2024/01/13 17:23:20;;;;;;;12.88;11.20;;;;;;;4.90;100.00;101970.34;10412806;28;20121;-70
2024/01/13 17:28:21;;;;;;;14.68;10.80;;;;;;;4.89;100.00;101953.41;10411881;28;20346;-71
2024/01/13 17:33:21;;;;;;;10.32;9.40;;;;;;;4.90;100.00;101948.88;10416452;28;20033;-71
2024/01/13 17:38:22;;;;;;;16.90;9.55;;;;;;;4.98;100.00;101953.56;10419215;28;20053;-71
2024/01/13 17:43:23;;;;;;;10.30;7.53;;;;;;;4.99;100.00;101942.69;10418842;28;20088;-71
2024/01/13 17:48:23;;;;;;;8.88;7.97;;;;;;;5.04;100.00;101947.66;10417281;28;20029;-71
2024/01/13 17:53:26;;;;;;;11.30;8.45;;;;;;;5.03;100.00;101935.22;10418260;28;20468;-71
2024/01/13 17:58:26;;;;;;;8.77;6.90;;;;;;;5.00;100.00;101927.44;10432759;28;20429;-71
2024/01/13 18:03:27;;;;;;;8.00;7.13;;;;;;;5.03;100.00;101919.97;10416552;28;20041;-71
2024/01/13 18:08:27;;;;;;;17.45;7.38;;;;;;;5.03;100.00;101922.63;10418197;28;20037;-71
2024/01/13 18:13:28;;;;;;;13.00;9.63;;;;;;;5.08;100.00;101923.09;10418415;28;20021;-71
2024/01/13 18:18:28;;;;;;;9.52;8.52;;;;;;;5.18;100.00;101911.53;10417170;28;20030;-71
2024/01/13 18:23:29;;;;;;;16.42;10.13;;;;;;;5.21;100.00;101922.84;10433017;28;20364;-71
2024/01/13 18:28:29;;;;;;;17.00;8.73;;;;;;;5.27;100.00;101911.56;10417383;28;20018;-71
2024/01/13 18:33:30;;;;;;;14.30;10.18;;;;;;;5.32;100.00;101911.13;10432770;28;20022;-71
2024/01/13 18:38:30;;;;;;;13.25;9.55;;;;;;;5.40;100.00;101897.88;10416465;28;20132;-71
2024/01/13 18:43:31;;;;;;;12.55;10.68;;;;;;;5.44;100.00;101898.44;10416935;28;20048;-71
2024/01/13 18:48:31;;;;;;;12.45;9.93;;;;;;;5.48;100.00;101895.31;10416182;28;20064;-71
2024/01/13 18:53:32;;;;;;;15.63;10.07;;;;;;;5.51;100.00;101894.19;10417624;28;20109;-71
2024/01/13 18:58:32;;;;;;;11.45;9.98;;;;;;;5.54;100.00;101885.84;10416426;28;20540;-71
2024/01/13 19:03:32;;;;;;;13.32;10.15;;;;;;;5.51;100.00;101883.44;10416428;28;20033;-70
2024/01/13 19:08:33;;;;;;;14.18;9.93;;;;;;;5.56;100.00;101881.19;10416962;28;20159;-71
2024/01/13 19:13:33;;;;;;;12.68;10.57;;;;;;;5.62;100.00;101871.72;10415657;28;20029;-71
2024/01/13 19:18:34;;;;;;;13.35;10.80;;;;;;;5.63;100.00;101863.53;10415943;28;20041;-71
2024/01/13 19:23:34;;;;;;;18.63;9.75;;;;;;;5.69;100.00;101862.94;10399368;28;20091;-71
2024/01/13 19:28:35;;;;;;;24.88;12.80;;;;;;;5.72;100.00;101859.13;10414101;28;20029;-71
2024/01/13 19:33:36;;;;;;;13.07;10.88;;;;;;;5.73;100.00;101853.59;10414376;28;20029;-71
2024/01/13 19:38:37;;;;;;;18.92;11.43;;;;;;;5.80;100.00;101846.66;10414391;28;20392;-71
2024/01/13 19:43:37;;;;;;;24.35;11.25;;;;;;;5.82;100.00;101833.09;10414246;28;20061;-71
2024/01/13 19:48:38;;;;;;;14.50;10.32;;;;;;;5.81;100.00;101829.56;10416069;28;20057;-71
2024/01/13 19:53:38;;;;;;;18.45;9.05;;;;;;;5.69;100.00;101819.13;10413703;28;20068;-71
2024/01/13 19:58:39;;;;;;;13.15;10.57;;;;;;;5.41;100.00;101813.59;10415812;28;20500;-71
2024/01/13 20:03:39;;;;;;;10.52;9.13;;;;;;;5.26;100.00;101796.19;10415116;28;20060;-71
2024/01/13 20:08:40;;;;;;;16.27;10.65;;;;;;;5.23;100.00;101807.22;10414633;28;20025;-71
2024/01/13 20:13:40;;;;;;;13.52;9.20;;;;;;;5.24;100.00;101796.38;10415198;28;20445;-71
2024/01/13 20:18:41;;;;;;;24.52;10.68;;;;;;;5.15;100.00;101781.09;10413248;28;20029;-71
2024/01/13 20:23:41;;;;;;;15.23;9.60;;;;;;;4.93;100.00;101782.19;10414432;28;20377;-71
2024/01/13 20:28:47;;;;;;;15.25;10.32;;;;;;;4.78;100.00;101768.31;10414297;28;20029;-71
2024/01/13 20:33:47;;;;;;;20.87;11.37;;;;;;;4.75;100.00;101752.50;10414836;28;20068;-71
2024/01/13 20:38:48;;;;;;;11.77;10.48;;;;;;;4.66;100.00;101746.16;10413448;28;20083;-71
2024/01/13 20:43:48;;;;;;;18.77;10.07;;;;;;;4.60;100.00;101744.00;10414063;28;20064;-71
2024/01/13 20:48:49;;;;;;;13.98;10.45;;;;;;;4.89;100.00;101741.38;10413302;28;20061;-70
2024/01/13 20:53:49;;;;;;;17.67;10.82;;;;;;;4.99;100.00;101743.22;10412599;28;20037;-71
2024/01/13 20:58:57;;;;;;;13.57;10.98;;;;;;;4.92;100.00;101742.09;10412692;28;20030;-71
2024/01/13 21:03:57;;;;;;;17.50;10.18;;;;;;;4.84;100.00;101737.41;10414015;28;20029;-71
2024/01/13 21:08:58;;;;;;;11.35;9.30;;;;;;;4.67;100.00;101733.56;10421162;28;20521;-71
2024/01/13 21:14:00;;;;;;;20.48;11.20;;;;;;;4.61;100.00;101728.75;10421181;28;20163;-71
2024/01/13 21:19:01;;;;;;;20.02;11.57;;;;;;;4.62;100.00;101701.78;10420334;28;20132;-71
2024/01/13 21:24:01;;;;;;;15.02;11.05;;;;;;;4.57;100.00;101698.69;10421662;28;20033;-71
2024/01/13 21:29:02;;;;;;;12.48;9.85;;;;;;;4.49;100.00;101703.03;10419046;28;20472;-71
2024/01/13 21:34:03;;;;;;;20.60;14.10;;;;;;;4.45;100.00;101696.25;10420427;28;20044;-71
2024/01/13 21:39:03;;;;;;;17.48;11.82;;;;;;;4.53;100.00;101691.03;10420571;28;20053;-71
2024/01/13 21:44:04;;;;;;;15.38;12.27;;;;;;;4.63;100.00;101676.66;10435659;28;20076;-71
2024/01/13 21:49:05;;;;;;;35.95;12.80;;;;;;;4.81;100.00;101666.06;10419473;28;20064;-71
2024/01/13 21:54:06;;;;;;;21.25;16.15;;;;;;;4.95;100.00;101674.72;10419635;28;20034;-71
2024/01/13 21:59:07;;;;;;;17.77;13.52;;;;;;;5.06;100.00;101663.81;10419863;28;20037;-71
2024/01/13 22:04:07;;;;;;;21.30;13.43;;;;;;;5.16;100.00;101647.69;10418299;28;20069;-71
2024/01/13 22:09:11;;;;;;;18.88;12.93;;;;;;;5.21;100.00;101646.28;10419288;28;20369;-70
2024/01/13 22:14:11;;;;;;;22.67;13.60;;;;;;;5.28;100.00;101639.31;10417676;28;20424;-71
2024/01/13 22:19:12;;;;;;;35.08;15.25;;;;;;;5.33;100.00;101628.16;10416681;28;20026;-71
2024/01/13 22:24:13;;;;;;;22.73;15.18;;;;;;;5.38;100.00;101622.34;10417198;28;20030;-71
2024/01/13 22:29:14;;;;;;;18.98;11.00;;;;;;;5.35;100.00;101616.25;10418649;28;20029;-71
2024/01/13 22:34:14;;;;;;;20.05;11.63;;;;;;;5.43;100.00;101617.38;10419319;28;20033;-71
2024/01/13 22:39:17;;;;;;;21.15;10.95;;;;;;;5.51;100.00;101604.06;10418652;28;20121;-71
2024/01/13 22:44:18;;;;;;;20.77;11.32;;;;;;;5.55;100.00;101610.81;10417859;28;20044;-71